sensor_id;sensor_type;location;lat;lon;timestamp;P1;durP1;ratioP1;P2;durP2;ratioP2
73632;SDS011;61927;50.080;14.418;2023-02-15T00:00:53;37.42;;;21.75;;
73632;SDS011;61927;50.080;14.418;2023-02-15T00:03:29;40.00;;;20.60;;
73632;SDS011;61927;50.080;14.418;2023-02-15T00:05:56;39.45;;;22.42;;
73632;SDS011;61927;50.080;14.418;2023-02-15T00:08:22;34.35;;;20.23;;
73632;SDS011;61927;50.080;14.418;2023-02-15T00:10:48;36.33;;;20.98;;
73632;SDS011;61927;50.080;14.418;2023-02-15T00:13:13;39.50;;;22.23;;
73632;SDS011;61927;50.080;14.418;2023-02-15T00:15:39;36.78;;;21.45;;
73632;SDS011;61927;50.080;14.418;2023-02-15T00:18:04;34.42;;;20.23;;
73632;SDS011;61927;50.080;14.418;2023-02-15T00:20:30;39.55;;;20.35;;
73632;SDS011;61927;50.080;14.418;2023-02-15T00:22:56;39.85;;;20.30;;
73632;SDS011;61927;50.080;14.418;2023-02-15T00:25:21;32.97;;;20.23;;
73632;SDS011;61927;50.080;14.418;2023-02-15T00:27:47;36.75;;;20.45;;
73632;SDS011;61927;50.080;14.418;2023-02-15T00:30:13;33.90;;;19.63;;
73632;SDS011;61927;50.080;14.418;2023-02-15T00:32:38;34.05;;;19.00;;
73632;SDS011;61927;50.080;14.418;2023-02-15T00:35:04;33.67;;;19.42;;
73632;SDS011;61927;50.080;14.418;2023-02-15T00:37:30;35.47;;;20.98;;
73632;SDS011;61927;50.080;14.418;2023-02-15T00:39:55;37.38;;;20.00;;
73632;SDS011;61927;50.080;14.418;2023-02-15T00:42:21;33.45;;;19.35;;
73632;SDS011;61927;50.080;14.418;2023-02-15T00:44:47;37.75;;;20.35;;
73632;SDS011;61927;50.080;14.418;2023-02-15T00:47:12;35.47;;;19.77;;
73632;SDS011;61927;50.080;14.418;2023-02-15T00:49:38;35.60;;;19.67;;
73632;SDS011;61927;50.080;14.418;2023-02-15T00:52:03;39.28;;;20.50;;
73632;SDS011;61927;50.080;14.418;2023-02-15T00:54:29;35.90;;;19.65;;
73632;SDS011;61927;50.080;14.418;2023-02-15T00:56:54;35.75;;;20.30;;
73632;SDS011;61927;50.080;14.418;2023-02-15T00:59:20;36.20;;;20.10;;
73632;SDS011;61927;50.080;14.418;2023-02-15T01:01:46;34.67;;;19.25;;
73632;SDS011;61927;50.080;14.418;2023-02-15T01:04:11;36.75;;;21.05;;
73632;SDS011;61927;50.080;14.418;2023-02-15T01:06:37;37.42;;;19.80;;
73632;SDS011;61927;50.080;14.418;2023-02-15T01:09:03;36.45;;;19.70;;
73632;SDS011;61927;50.080;14.418;2023-02-15T01:11:28;37.30;;;19.55;;
73632;SDS011;61927;50.080;14.418;2023-02-15T01:13:55;36.83;;;19.08;;
73632;SDS011;61927;50.080;14.418;2023-02-15T01:16:22;36.28;;;20.05;;
73632;SDS011;61927;50.080;14.418;2023-02-15T01:18:49;43.72;;;21.02;;
73632;SDS011;61927;50.080;14.418;2023-02-15T01:21:16;37.30;;;18.92;;
73632;SDS011;61927;50.080;14.418;2023-02-15T01:23:44;33.03;;;19.27;;
73632;SDS011;61927;50.080;14.418;2023-02-15T01:26:09;34.60;;;19.80;;
73632;SDS011;61927;50.080;14.418;2023-02-15T01:28:35;34.08;;;19.20;;
73632;SDS011;61927;50.080;14.418;2023-02-15T01:31:05;32.00;;;19.73;;
73632;SDS011;61927;50.080;14.418;2023-02-15T01:33:33;36.20;;;19.73;;
73632;SDS011;61927;50.080;14.418;2023-02-15T01:35:59;37.95;;;20.48;;
73632;SDS011;61927;50.080;14.418;2023-02-15T01:38:25;42.90;;;20.60;;
73632;SDS011;61927;50.080;14.418;2023-02-15T01:40:51;39.85;;;20.90;;
73632;SDS011;61927;50.080;14.418;2023-02-15T01:43:18;44.15;;;21.27;;
73632;SDS011;61927;50.080;14.418;2023-02-15T01:45:44;37.05;;;20.58;;
73632;SDS011;61927;50.080;14.418;2023-02-15T01:48:20;35.42;;;20.00;;
73632;SDS011;61927;50.080;14.418;2023-02-15T01:50:50;41.30;;;20.20;;
73632;SDS011;61927;50.080;14.418;2023-02-15T01:53:27;37.33;;;20.05;;
73632;SDS011;61927;50.080;14.418;2023-02-15T01:56:07;40.25;;;20.02;;
73632;SDS011;61927;50.080;14.418;2023-02-15T01:58:36;35.75;;;19.63;;
73632;SDS011;61927;50.080;14.418;2023-02-15T02:01:02;35.85;;;20.75;;
73632;SDS011;61927;50.080;14.418;2023-02-15T02:03:46;38.38;;;19.27;;
73632;SDS011;61927;50.080;14.418;2023-02-15T02:06:21;40.00;;;20.30;;
73632;SDS011;61927;50.080;14.418;2023-02-15T02:08:48;35.28;;;18.92;;
73632;SDS011;61927;50.080;14.418;2023-02-15T02:11:14;43.85;;;18.55;;
73632;SDS011;61927;50.080;14.418;2023-02-15T02:13:40;38.83;;;20.17;;
73632;SDS011;61927;50.080;14.418;2023-02-15T02:16:10;36.10;;;18.63;;
73632;SDS011;61927;50.080;14.418;2023-02-15T02:40:25;36.83;;;19.77;;
73632;SDS011;61927;50.080;14.418;2023-02-15T02:43:12;39.80;;;21.45;;
73632;SDS011;61927;50.080;14.418;2023-02-15T02:45:42;38.85;;;21.00;;
73632;SDS011;61927;50.080;14.418;2023-02-15T02:48:17;36.47;;;19.63;;
73632;SDS011;61927;50.080;14.418;2023-02-15T02:50:48;43.20;;;21.63;;
73632;SDS011;61927;50.080;14.418;2023-02-15T02:53:13;39.45;;;19.75;;
73632;SDS011;61927;50.080;14.418;2023-02-15T02:55:46;41.17;;;20.65;;
73632;SDS011;61927;50.080;14.418;2023-02-15T03:00:47;40.38;;;21.15;;
73632;SDS011;61927;50.080;14.418;2023-02-15T03:05:53;44.72;;;21.67;;
73632;SDS011;61927;50.080;14.418;2023-02-15T03:08:22;36.78;;;20.10;;
73632;SDS011;61927;50.080;14.418;2023-02-15T03:10:53;39.03;;;20.00;;
73632;SDS011;61927;50.080;14.418;2023-02-15T03:13:22;39.53;;;21.02;;
73632;SDS011;61927;50.080;14.418;2023-02-15T03:15:48;40.63;;;20.92;;
73632;SDS011;61927;50.080;14.418;2023-02-15T03:18:36;38.88;;;21.55;;
73632;SDS011;61927;50.080;14.418;2023-02-15T03:21:05;42.65;;;21.13;;
73632;SDS011;61927;50.080;14.418;2023-02-15T03:23:33;46.13;;;20.33;;
73632;SDS011;61927;50.080;14.418;2023-02-15T03:26:02;40.80;;;21.17;;
73632;SDS011;61927;50.080;14.418;2023-02-15T03:28:31;41.47;;;20.75;;
73632;SDS011;61927;50.080;14.418;2023-02-15T03:31:02;40.00;;;21.77;;
73632;SDS011;61927;50.080;14.418;2023-02-15T03:33:31;45.55;;;22.05;;
73632;SDS011;61927;50.080;14.418;2023-02-15T03:38:57;45.55;;;21.92;;
73632;SDS011;61927;50.080;14.418;2023-02-15T03:41:34;37.72;;;20.17;;
73632;SDS011;61927;50.080;14.418;2023-02-15T03:44:15;39.92;;;20.65;;
73632;SDS011;61927;50.080;14.418;2023-02-15T03:46:52;39.20;;;20.25;;
73632;SDS011;61927;50.080;14.418;2023-02-15T03:52:04;44.08;;;21.38;;
73632;SDS011;61927;50.080;14.418;2023-02-15T03:54:33;37.53;;;21.10;;
73632;SDS011;61927;50.080;14.418;2023-02-15T04:00:15;51.38;;;22.77;;
73632;SDS011;61927;50.080;14.418;2023-02-15T04:05:31;47.03;;;22.05;;
73632;SDS011;61927;50.080;14.418;2023-02-15T04:07:56;38.85;;;21.55;;
73632;SDS011;61927;50.080;14.418;2023-02-15T04:10:22;42.83;;;22.45;;
73632;SDS011;61927;50.080;14.418;2023-02-15T04:15:31;44.42;;;21.60;;
73632;SDS011;61927;50.080;14.418;2023-02-15T04:18:15;47.20;;;23.77;;
73632;SDS011;61927;50.080;14.418;2023-02-15T04:20:45;43.42;;;23.23;;
73632;SDS011;61927;50.080;14.418;2023-02-15T04:23:29;46.85;;;22.40;;
73632;SDS011;61927;50.080;14.418;2023-02-15T04:26:14;47.65;;;23.13;;
73632;SDS011;61927;50.080;14.418;2023-02-15T04:28:40;48.35;;;22.67;;
73632;SDS011;61927;50.080;14.418;2023-02-15T04:31:05;45.47;;;22.13;;
73632;SDS011;61927;50.080;14.418;2023-02-15T04:33:31;40.97;;;20.55;;
73632;SDS011;61927;50.080;14.418;2023-02-15T04:35:56;48.22;;;23.55;;
73632;SDS011;61927;50.080;14.418;2023-02-15T04:38:22;46.58;;;21.98;;
73632;SDS011;61927;50.080;14.418;2023-02-15T04:40:51;45.60;;;21.30;;
73632;SDS011;61927;50.080;14.418;2023-02-15T04:43:18;51.60;;;21.75;;
73632;SDS011;61927;50.080;14.418;2023-02-15T04:45:50;46.90;;;21.75;;
73632;SDS011;61927;50.080;14.418;2023-02-15T04:48:17;39.83;;;20.35;;
73632;SDS011;61927;50.080;14.418;2023-02-15T04:50:43;41.35;;;20.48;;
73632;SDS011;61927;50.080;14.418;2023-02-15T04:53:10;42.33;;;20.88;;
73632;SDS011;61927;50.080;14.418;2023-02-15T04:55:35;46.00;;;20.98;;
73632;SDS011;61927;50.080;14.418;2023-02-15T04:58:01;49.80;;;21.38;;
73632;SDS011;61927;50.080;14.418;2023-02-15T05:00:26;46.08;;;20.88;;
73632;SDS011;61927;50.080;14.418;2023-02-15T05:02:52;41.35;;;20.10;;
73632;SDS011;61927;50.080;14.418;2023-02-15T05:05:18;45.88;;;22.45;;
73632;SDS011;61927;50.080;14.418;2023-02-15T05:07:44;44.72;;;21.17;;
73632;SDS011;61927;50.080;14.418;2023-02-15T05:10:09;46.05;;;21.38;;
73632;SDS011;61927;50.080;14.418;2023-02-15T05:12:35;46.65;;;21.42;;
73632;SDS011;61927;50.080;14.418;2023-02-15T05:15:01;45.90;;;20.95;;
73632;SDS011;61927;50.080;14.418;2023-02-15T05:17:26;42.92;;;20.27;;
73632;SDS011;61927;50.080;14.418;2023-02-15T05:19:52;42.78;;;20.95;;
73632;SDS011;61927;50.080;14.418;2023-02-15T05:22:18;43.95;;;20.77;;
73632;SDS011;61927;50.080;14.418;2023-02-15T05:24:43;43.67;;;20.90;;
73632;SDS011;61927;50.080;14.418;2023-02-15T05:27:28;47.70;;;21.30;;
73632;SDS011;61927;50.080;14.418;2023-02-15T05:32:38;42.28;;;19.35;;
73632;SDS011;61927;50.080;14.418;2023-02-15T05:35:07;43.15;;;19.75;;
73632;SDS011;61927;50.080;14.418;2023-02-15T05:37:33;44.72;;;20.80;;
73632;SDS011;61927;50.080;14.418;2023-02-15T05:39:58;46.10;;;21.42;;
73632;SDS011;61927;50.080;14.418;2023-02-15T05:42:24;39.45;;;19.60;;
73632;SDS011;61927;50.080;14.418;2023-02-15T05:44:50;44.83;;;20.35;;
73632;SDS011;61927;50.080;14.418;2023-02-15T05:47:15;46.42;;;21.33;;
73632;SDS011;61927;50.080;14.418;2023-02-15T05:49:41;83.72;;;38.50;;
73632;SDS011;61927;50.080;14.418;2023-02-15T05:52:06;44.17;;;22.35;;
73632;SDS011;61927;50.080;14.418;2023-02-15T05:54:33;49.22;;;24.92;;
73632;SDS011;61927;50.080;14.418;2023-02-15T05:56:59;49.15;;;21.75;;
73632;SDS011;61927;50.080;14.418;2023-02-15T05:59:24;44.58;;;20.63;;
73632;SDS011;61927;50.080;14.418;2023-02-15T06:01:50;44.13;;;20.10;;
73632;SDS011;61927;50.080;14.418;2023-02-15T06:04:15;39.35;;;20.05;;
73632;SDS011;61927;50.080;14.418;2023-02-15T06:06:41;43.88;;;20.02;;
73632;SDS011;61927;50.080;14.418;2023-02-15T06:09:06;36.90;;;17.88;;
73632;SDS011;61927;50.080;14.418;2023-02-15T06:11:32;40.78;;;19.92;;
73632;SDS011;61927;50.080;14.418;2023-02-15T06:13:58;41.35;;;19.13;;
73632;SDS011;61927;50.080;14.418;2023-02-15T06:16:23;38.92;;;19.02;;
73632;SDS011;61927;50.080;14.418;2023-02-15T06:18:49;46.83;;;19.73;;
73632;SDS011;61927;50.080;14.418;2023-02-15T06:21:15;45.05;;;19.88;;
73632;SDS011;61927;50.080;14.418;2023-02-15T06:23:41;40.42;;;20.13;;
73632;SDS011;61927;50.080;14.418;2023-02-15T06:26:07;45.95;;;19.48;;
73632;SDS011;61927;50.080;14.418;2023-02-15T06:28:32;42.90;;;19.42;;
73632;SDS011;61927;50.080;14.418;2023-02-15T06:30:58;52.20;;;19.50;;
73632;SDS011;61927;50.080;14.418;2023-02-15T06:33:23;46.30;;;17.73;;
73632;SDS011;61927;50.080;14.418;2023-02-15T06:35:49;41.97;;;18.60;;
73632;SDS011;61927;50.080;14.418;2023-02-15T06:38:15;45.72;;;19.48;;
73632;SDS011;61927;50.080;14.418;2023-02-15T06:40:40;43.53;;;18.70;;
73632;SDS011;61927;50.080;14.418;2023-02-15T06:43:06;41.13;;;18.95;;
73632;SDS011;61927;50.080;14.418;2023-02-15T06:45:31;43.75;;;19.88;;
73632;SDS011;61927;50.080;14.418;2023-02-15T06:47:57;48.92;;;20.88;;
73632;SDS011;61927;50.080;14.418;2023-02-15T06:50:23;48.60;;;20.95;;
73632;SDS011;61927;50.080;14.418;2023-02-15T06:52:48;50.58;;;20.42;;
73632;SDS011;61927;50.080;14.418;2023-02-15T06:55:14;41.97;;;20.52;;
73632;SDS011;61927;50.080;14.418;2023-02-15T06:57:40;47.22;;;20.40;;
73632;SDS011;61927;50.080;14.418;2023-02-15T07:00:06;49.40;;;19.27;;
73632;SDS011;61927;50.080;14.418;2023-02-15T07:02:33;49.17;;;18.95;;
73632;SDS011;61927;50.080;14.418;2023-02-15T07:04:58;52.42;;;20.25;;
73632;SDS011;61927;50.080;14.418;2023-02-15T07:07:24;44.30;;;20.48;;
73632;SDS011;61927;50.080;14.418;2023-02-15T07:09:50;47.45;;;20.73;;
73632;SDS011;61927;50.080;14.418;2023-02-15T07:12:16;46.17;;;20.35;;
73632;SDS011;61927;50.080;14.418;2023-02-15T07:15:00;37.30;;;18.27;;
73632;SDS011;61927;50.080;14.418;2023-02-15T07:17:26;41.47;;;19.77;;
73632;SDS011;61927;50.080;14.418;2023-02-15T07:19:54;49.78;;;20.63;;
73632;SDS011;61927;50.080;14.418;2023-02-15T07:22:20;48.67;;;19.58;;
73632;SDS011;61927;50.080;14.418;2023-02-15T07:24:45;47.05;;;19.25;;
73632;SDS011;61927;50.080;14.418;2023-02-15T07:27:11;50.25;;;19.23;;
73632;SDS011;61927;50.080;14.418;2023-02-15T07:29:36;46.03;;;18.50;;
73632;SDS011;61927;50.080;14.418;2023-02-15T07:32:02;44.03;;;19.13;;
73632;SDS011;61927;50.080;14.418;2023-02-15T07:34:28;41.08;;;18.40;;
73632;SDS011;61927;50.080;14.418;2023-02-15T07:36:53;38.72;;;18.35;;
73632;SDS011;61927;50.080;14.418;2023-02-15T07:39:19;48.55;;;22.75;;
73632;SDS011;61927;50.080;14.418;2023-02-15T07:41:46;44.75;;;18.75;;
73632;SDS011;61927;50.080;14.418;2023-02-15T07:44:13;39.40;;;17.92;;
73632;SDS011;61927;50.080;14.418;2023-02-15T07:46:39;38.80;;;17.65;;
73632;SDS011;61927;50.080;14.418;2023-02-15T07:49:05;44.10;;;18.23;;
73632;SDS011;61927;50.080;14.418;2023-02-15T07:51:31;39.42;;;18.67;;
73632;SDS011;61927;50.080;14.418;2023-02-15T07:53:56;45.72;;;19.65;;
73632;SDS011;61927;50.080;14.418;2023-02-15T07:56:22;43.63;;;18.42;;
73632;SDS011;61927;50.080;14.418;2023-02-15T07:58:48;36.58;;;17.85;;
73632;SDS011;61927;50.080;14.418;2023-02-15T08:01:17;46.78;;;18.60;;
73632;SDS011;61927;50.080;14.418;2023-02-15T08:03:55;41.17;;;18.15;;
73632;SDS011;61927;50.080;14.418;2023-02-15T08:06:21;42.13;;;19.15;;
73632;SDS011;61927;50.080;14.418;2023-02-15T08:08:48;33.92;;;17.00;;
73632;SDS011;61927;50.080;14.418;2023-02-15T08:11:21;48.00;;;18.05;;
73632;SDS011;61927;50.080;14.418;2023-02-15T08:13:52;40.47;;;16.70;;
73632;SDS011;61927;50.080;14.418;2023-02-15T08:16:53;45.85;;;18.05;;
73632;SDS011;61927;50.080;14.418;2023-02-15T08:21:49;33.45;;;16.05;;
73632;SDS011;61927;50.080;14.418;2023-02-15T08:24:17;35.83;;;16.45;;
73632;SDS011;61927;50.080;14.418;2023-02-15T08:26:44;35.03;;;16.88;;
73632;SDS011;61927;50.080;14.418;2023-02-15T08:29:12;34.53;;;16.00;;
73632;SDS011;61927;50.080;14.418;2023-02-15T08:31:41;37.45;;;16.70;;
73632;SDS011;61927;50.080;14.418;2023-02-15T08:34:08;35.92;;;16.75;;
73632;SDS011;61927;50.080;14.418;2023-02-15T08:36:36;34.83;;;17.02;;
73632;SDS011;61927;50.080;14.418;2023-02-15T08:39:04;38.35;;;16.08;;
73632;SDS011;61927;50.080;14.418;2023-02-15T08:41:31;38.25;;;15.60;;
73632;SDS011;61927;50.080;14.418;2023-02-15T08:44:00;36.85;;;15.80;;
73632;SDS011;61927;50.080;14.418;2023-02-15T08:46:28;31.55;;;15.60;;
73632;SDS011;61927;50.080;14.418;2023-02-15T08:48:56;34.25;;;16.48;;
73632;SDS011;61927;50.080;14.418;2023-02-15T08:51:22;36.75;;;15.88;;
73632;SDS011;61927;50.080;14.418;2023-02-15T08:53:51;35.22;;;18.23;;
73632;SDS011;61927;50.080;14.418;2023-02-15T08:56:21;36.17;;;18.02;;
73632;SDS011;61927;50.080;14.418;2023-02-15T08:58:48;38.50;;;16.67;;
73632;SDS011;61927;50.080;14.418;2023-02-15T09:01:15;36.75;;;15.95;;
73632;SDS011;61927;50.080;14.418;2023-02-15T09:03:46;41.10;;;16.90;;
73632;SDS011;61927;50.080;14.418;2023-02-15T09:06:14;37.88;;;16.23;;
73632;SDS011;61927;50.080;14.418;2023-02-15T09:08:41;36.15;;;16.45;;
73632;SDS011;61927;50.080;14.418;2023-02-15T09:11:14;38.95;;;17.63;;
73632;SDS011;61927;50.080;14.418;2023-02-15T09:13:47;36.13;;;15.25;;
73632;SDS011;61927;50.080;14.418;2023-02-15T09:16:14;38.70;;;17.15;;
73632;SDS011;61927;50.080;14.418;2023-02-15T09:18:42;38.15;;;16.65;;
73632;SDS011;61927;50.080;14.418;2023-02-15T09:21:09;36.88;;;16.10;;
73632;SDS011;61927;50.080;14.418;2023-02-15T09:23:39;32.80;;;16.23;;
73632;SDS011;61927;50.080;14.418;2023-02-15T09:26:06;41.75;;;16.98;;
73632;SDS011;61927;50.080;14.418;2023-02-15T09:28:33;44.17;;;16.30;;
73632;SDS011;61927;50.080;14.418;2023-02-15T09:31:09;32.70;;;15.35;;
73632;SDS011;61927;50.080;14.418;2023-02-15T09:33:42;40.60;;;17.25;;
73632;SDS011;61927;50.080;14.418;2023-02-15T09:36:19;31.23;;;16.05;;
73632;SDS011;61927;50.080;14.418;2023-02-15T09:38:47;38.00;;;18.52;;
73632;SDS011;61927;50.080;14.418;2023-02-15T09:46:44;33.05;;;16.88;;
73632;SDS011;61927;50.080;14.418;2023-02-15T09:51:52;37.00;;;17.58;;
73632;SDS011;61927;50.080;14.418;2023-02-15T09:54:28;36.35;;;17.75;;
73632;SDS011;61927;50.080;14.418;2023-02-15T09:57:10;35.83;;;15.40;;
73632;SDS011;61927;50.080;14.418;2023-02-15T10:02:54;34.65;;;16.90;;
73632;SDS011;61927;50.080;14.418;2023-02-15T10:11:39;32.03;;;15.40;;
73632;SDS011;61927;50.080;14.418;2023-02-15T10:14:33;27.42;;;13.57;;
73632;SDS011;61927;50.080;14.418;2023-02-15T10:22:37;31.35;;;15.95;;
73632;SDS011;61927;50.080;14.418;2023-02-15T10:28:19;41.85;;;17.73;;
73632;SDS011;61927;50.080;14.418;2023-02-15T10:30:50;38.03;;;16.50;;
73632;SDS011;61927;50.080;14.418;2023-02-15T10:38:56;31.65;;;16.15;;
73632;SDS011;61927;50.080;14.418;2023-02-15T10:41:47;31.05;;;16.40;;
73632;SDS011;61927;50.080;14.418;2023-02-15T10:44:40;30.33;;;15.97;;
73632;SDS011;61927;50.080;14.418;2023-02-15T10:47:17;36.15;;;17.25;;
73632;SDS011;61927;50.080;14.418;2023-02-15T10:50:32;31.25;;;14.73;;
73632;SDS011;61927;50.080;14.418;2023-02-15T10:53:32;35.90;;;15.77;;
73632;SDS011;61927;50.080;14.418;2023-02-15T11:01:07;35.95;;;16.88;;
73632;SDS011;61927;50.080;14.418;2023-02-15T11:06:50;32.38;;;16.63;;
73632;SDS011;61927;50.080;14.418;2023-02-15T11:09:21;41.85;;;17.33;;
73632;SDS011;61927;50.080;14.418;2023-02-15T11:11:53;36.72;;;17.30;;
73632;SDS011;61927;50.080;14.418;2023-02-15T11:14:33;35.55;;;17.17;;
73632;SDS011;61927;50.080;14.418;2023-02-15T11:17:01;35.33;;;17.48;;
73632;SDS011;61927;50.080;14.418;2023-02-15T11:19:35;38.42;;;18.35;;
73632;SDS011;61927;50.080;14.418;2023-02-15T11:22:05;37.50;;;18.25;;
73632;SDS011;61927;50.080;14.418;2023-02-15T11:24:36;39.90;;;18.13;;
73632;SDS011;61927;50.080;14.418;2023-02-15T11:29:59;42.67;;;21.33;;
73632;SDS011;61927;50.080;14.418;2023-02-15T11:32:33;36.50;;;17.55;;
73632;SDS011;61927;50.080;14.418;2023-02-15T11:37:40;33.88;;;15.85;;
73632;SDS011;61927;50.080;14.418;2023-02-15T11:40:31;30.63;;;16.55;;
73632;SDS011;61927;50.080;14.418;2023-02-15T11:46:05;29.85;;;15.32;;
73632;SDS011;61927;50.080;14.418;2023-02-15T11:48:32;29.83;;;15.55;;
73632;SDS011;61927;50.080;14.418;2023-02-15T11:50:59;39.53;;;19.35;;
73632;SDS011;61927;50.080;14.418;2023-02-15T11:53:28;31.85;;;16.85;;
73632;SDS011;61927;50.080;14.418;2023-02-15T11:55:57;34.08;;;16.15;;
73632;SDS011;61927;50.080;14.418;2023-02-15T11:58:33;27.50;;;14.98;;
73632;SDS011;61927;50.080;14.418;2023-02-15T12:01:10;30.20;;;16.17;;
73632;SDS011;61927;50.080;14.418;2023-02-15T12:06:57;40.78;;;20.08;;
73632;SDS011;61927;50.080;14.418;2023-02-15T12:11:44;25.52;;;14.02;;
73632;SDS011;61927;50.080;14.418;2023-02-15T12:14:10;30.02;;;15.27;;
73632;SDS011;61927;50.080;14.418;2023-02-15T12:22:25;29.65;;;14.65;;
73632;SDS011;61927;50.080;14.418;2023-02-15T12:25:04;36.90;;;16.63;;
73632;SDS011;61927;50.080;14.418;2023-02-15T12:27:46;32.47;;;15.45;;
73632;SDS011;61927;50.080;14.418;2023-02-15T12:30:30;31.08;;;14.77;;
73632;SDS011;61927;50.080;14.418;2023-02-15T12:33:04;33.47;;;14.43;;
73632;SDS011;61927;50.080;14.418;2023-02-15T12:35:40;31.92;;;14.80;;
73632;SDS011;61927;50.080;14.418;2023-02-15T12:38:20;22.40;;;14.15;;
73632;SDS011;61927;50.080;14.418;2023-02-15T12:40:59;34.50;;;14.82;;
73632;SDS011;61927;50.080;14.418;2023-02-15T12:43:48;33.40;;;14.85;;
73632;SDS011;61927;50.080;14.418;2023-02-15T12:46:29;30.17;;;14.70;;
73632;SDS011;61927;50.080;14.418;2023-02-15T12:49:04;28.40;;;13.52;;
73632;SDS011;61927;50.080;14.418;2023-02-15T12:51:43;21.50;;;13.63;;
73632;SDS011;61927;50.080;14.418;2023-02-15T12:56:57;31.02;;;13.95;;
73632;SDS011;61927;50.080;14.418;2023-02-15T12:59:24;32.28;;;16.13;;
73632;SDS011;61927;50.080;14.418;2023-02-15T13:01:53;20.85;;;12.68;;
73632;SDS011;61927;50.080;14.418;2023-02-15T13:04:28;25.92;;;12.90;;
73632;SDS011;61927;50.080;14.418;2023-02-15T13:06:56;22.95;;;12.82;;
73632;SDS011;61927;50.080;14.418;2023-02-15T13:11:57;21.75;;;12.48;;
73632;SDS011;61927;50.080;14.418;2023-02-15T13:14:35;23.98;;;12.75;;
73632;SDS011;61927;50.080;14.418;2023-02-15T13:17:03;27.70;;;15.27;;
73632;SDS011;61927;50.080;14.418;2023-02-15T13:19:36;25.33;;;12.88;;
73632;SDS011;61927;50.080;14.418;2023-02-15T13:22:08;21.33;;;12.43;;
73632;SDS011;61927;50.080;14.418;2023-02-15T13:24:40;21.40;;;11.77;;
73632;SDS011;61927;50.080;14.418;2023-02-15T13:27:15;23.38;;;14.00;;
73632;SDS011;61927;50.080;14.418;2023-02-15T13:29:48;24.42;;;13.60;;
73632;SDS011;61927;50.080;14.418;2023-02-15T13:34:57;24.02;;;13.07;;
73632;SDS011;61927;50.080;14.418;2023-02-15T13:40:15;25.13;;;13.80;;
73632;SDS011;61927;50.080;14.418;2023-02-15T13:42:44;25.58;;;13.90;;
73632;SDS011;61927;50.080;14.418;2023-02-15T14:10:02;26.02;;;13.23;;
73632;SDS011;61927;50.080;14.418;2023-02-15T14:15:42;25.75;;;13.25;;
73632;SDS011;61927;50.080;14.418;2023-02-15T14:18:20;22.60;;;12.10;;
73632;SDS011;61927;50.080;14.418;2023-02-15T14:20:49;103.82;;;41.00;;
73632;SDS011;61927;50.080;14.418;2023-02-15T14:31:51;27.43;;;14.80;;
73632;SDS011;61927;50.080;14.418;2023-02-15T14:34:25;24.80;;;13.27;;
73632;SDS011;61927;50.080;14.418;2023-02-15T14:36:56;34.28;;;21.23;;
73632;SDS011;61927;50.080;14.418;2023-02-15T14:42:27;24.70;;;15.85;;
73632;SDS011;61927;50.080;14.418;2023-02-15T14:45:17;32.67;;;13.73;;
73632;SDS011;61927;50.080;14.418;2023-02-15T14:47:54;25.17;;;14.23;;
73632;SDS011;61927;50.080;14.418;2023-02-15T14:55:42;25.92;;;14.43;;
73632;SDS011;61927;50.080;14.418;2023-02-15T14:58:11;22.50;;;13.50;;
73632;SDS011;61927;50.080;14.418;2023-02-15T15:00:38;27.83;;;14.40;;
73632;SDS011;61927;50.080;14.418;2023-02-15T15:03:10;21.90;;;13.80;;
73632;SDS011;61927;50.080;14.418;2023-02-15T15:05:48;26.45;;;14.73;;
73632;SDS011;61927;50.080;14.418;2023-02-15T15:08:28;25.38;;;14.98;;
73632;SDS011;61927;50.080;14.418;2023-02-15T15:11:37;27.48;;;14.32;;
73632;SDS011;61927;50.080;14.418;2023-02-15T15:13:57;25.17;;;13.77;;
73632;SDS011;61927;50.080;14.418;2023-02-15T15:19:10;23.88;;;13.80;;
73632;SDS011;61927;50.080;14.418;2023-02-15T15:41:18;27.20;;;14.98;;
73632;SDS011;61927;50.080;14.418;2023-02-15T15:49:14;37.90;;;18.23;;
73632;SDS011;61927;50.080;14.418;2023-02-15T15:51:42;36.25;;;16.70;;
73632;SDS011;61927;50.080;14.418;2023-02-15T15:54:17;38.17;;;17.05;;
73632;SDS011;61927;50.080;14.418;2023-02-15T15:56:49;37.53;;;15.73;;
73632;SDS011;61927;50.080;14.418;2023-02-15T15:59:20;37.42;;;16.38;;
73632;SDS011;61927;50.080;14.418;2023-02-15T16:01:50;38.45;;;15.93;;
73632;SDS011;61927;50.080;14.418;2023-02-15T16:04:23;27.83;;;16.02;;
73632;SDS011;61927;50.080;14.418;2023-02-15T16:06:52;30.38;;;17.05;;
73632;SDS011;61927;50.080;14.418;2023-02-15T16:09:19;33.70;;;16.45;;
73632;SDS011;61927;50.080;14.418;2023-02-15T16:11:47;42.92;;;16.40;;
73632;SDS011;61927;50.080;14.418;2023-02-15T16:16:55;31.00;;;16.25;;
73632;SDS011;61927;50.080;14.418;2023-02-15T16:19:24;32.55;;;16.10;;
73632;SDS011;61927;50.080;14.418;2023-02-15T16:21:53;50.35;;;22.58;;
73632;SDS011;61927;50.080;14.418;2023-02-15T16:30:26;37.15;;;16.48;;
73632;SDS011;61927;50.080;14.418;2023-02-15T16:33:08;32.63;;;16.73;;
73632;SDS011;61927;50.080;14.418;2023-02-15T16:35:39;39.25;;;17.17;;
73632;SDS011;61927;50.080;14.418;2023-02-15T16:38:17;33.13;;;17.02;;
73632;SDS011;61927;50.080;14.418;2023-02-15T16:40:54;42.75;;;19.48;;
73632;SDS011;61927;50.080;14.418;2023-02-15T16:43:24;50.60;;;24.80;;
73632;SDS011;61927;50.080;14.418;2023-02-15T16:45:54;61.63;;;26.10;;
73632;SDS011;61927;50.080;14.418;2023-02-15T16:48:29;47.58;;;23.38;;
73632;SDS011;61927;50.080;14.418;2023-02-15T16:50:55;68.47;;;24.30;;
73632;SDS011;61927;50.080;14.418;2023-02-15T16:53:26;51.80;;;23.67;;
73632;SDS011;61927;50.080;14.418;2023-02-15T16:56:03;50.85;;;22.98;;
73632;SDS011;61927;50.080;14.418;2023-02-15T16:58:37;51.95;;;24.98;;
73632;SDS011;61927;50.080;14.418;2023-02-15T17:01:06;61.65;;;25.90;;
73632;SDS011;61927;50.080;14.418;2023-02-15T17:03:34;57.95;;;27.02;;
73632;SDS011;61927;50.080;14.418;2023-02-15T17:06:01;63.85;;;28.75;;
73632;SDS011;61927;50.080;14.418;2023-02-15T17:08:33;69.28;;;30.80;;
73632;SDS011;61927;50.080;14.418;2023-02-15T17:13:37;69.65;;;30.88;;
73632;SDS011;61927;50.080;14.418;2023-02-15T17:18:30;72.03;;;30.65;;
73632;SDS011;61927;50.080;14.418;2023-02-15T17:21:00;61.00;;;29.73;;
73632;SDS011;61927;50.080;14.418;2023-02-15T17:23:41;63.22;;;30.77;;
73632;SDS011;61927;50.080;14.418;2023-02-15T17:26:20;61.72;;;30.10;;
73632;SDS011;61927;50.080;14.418;2023-02-15T17:28:51;66.20;;;31.17;;
73632;SDS011;61927;50.080;14.418;2023-02-15T17:31:21;62.65;;;30.17;;
73632;SDS011;61927;50.080;14.418;2023-02-15T17:33:51;67.20;;;32.20;;
73632;SDS011;61927;50.080;14.418;2023-02-15T17:36:20;68.90;;;29.38;;
73632;SDS011;61927;50.080;14.418;2023-02-15T17:41:29;76.05;;;30.15;;
73632;SDS011;61927;50.080;14.418;2023-02-15T17:43:57;64.97;;;30.17;;
73632;SDS011;61927;50.080;14.418;2023-02-15T17:46:23;74.72;;;35.45;;
73632;SDS011;61927;50.080;14.418;2023-02-15T17:48:51;71.78;;;31.58;;
73632;SDS011;61927;50.080;14.418;2023-02-15T17:51:19;69.53;;;32.10;;